createdAt,value
2018-02-26T01:56:45.403Z,-2.55
2018-02-26T01:57:18.354Z,-2.50
2018-02-26T01:58:18.371Z,-2.55
2018-02-26T01:59:18.318Z,-2.52
2018-02-26T02:00:18.332Z,-2.46
2018-02-26T02:01:18.271Z,-2.58
2018-02-26T02:02:18.260Z,-2.55
2018-02-26T02:03:18.225Z,-2.67
2018-02-26T02:04:18.282Z,-2.68
2018-02-26T02:05:18.544Z,-2.64
2018-02-26T02:06:18.232Z,-2.68
2018-02-26T02:07:18.153Z,-2.64
2018-02-26T02:08:18.120Z,-2.67
2018-02-26T02:09:18.131Z,-2.68
2018-02-26T02:10:18.077Z,-2.74
2018-02-26T02:11:18.060Z,-2.73
2018-02-26T02:12:18.043Z,-2.64
2018-02-26T02:13:18.014Z,-2.74
2018-02-26T02:14:18.007Z,-2.71
2018-02-26T02:15:17.980Z,-2.66
2018-02-26T02:16:18.651Z,-2.74
2018-02-26T02:17:17.936Z,-2.74
2018-02-26T02:18:17.912Z,-2.68
2018-02-26T02:19:17.879Z,-2.63
2018-02-26T02:20:17.902Z,-2.60
2018-02-26T02:21:17.909Z,-2.68
2018-02-26T02:22:17.826Z,-2.66
2018-02-26T02:23:17.806Z,-2.67
2018-02-26T02:24:17.839Z,-2.67
2018-02-26T02:25:17.757Z,-2.78
2018-02-26T02:26:17.743Z,-2.71
2018-02-26T02:27:17.772Z,-2.74
2018-02-26T02:28:17.699Z,-2.68
2018-02-26T02:29:17.678Z,-2.66
2018-02-26T02:30:17.654Z,-2.67
2018-02-26T02:31:17.662Z,-2.55
2018-02-26T02:32:17.599Z,-2.58
2018-02-26T02:33:17.609Z,-2.58
2018-02-26T02:34:17.578Z,-2.53
2018-02-26T02:35:17.542Z,-2.50
2018-02-26T02:36:17.519Z,-2.45
2018-02-26T02:37:17.515Z,-2.53
2018-02-26T02:38:17.546Z,-2.45
2018-02-26T02:39:17.445Z,-2.46
2018-02-26T02:40:17.431Z,-2.35
2018-02-26T02:41:17.409Z,-2.34
2018-02-26T02:42:17.392Z,-2.40
2018-02-26T02:43:17.481Z,-2.48
2018-02-26T02:44:17.391Z,-2.46
2018-02-26T02:45:17.327Z,-2.42
2018-02-26T02:46:17.359Z,-2.43
2018-02-26T02:47:17.291Z,-2.37
2018-02-26T02:48:17.304Z,-2.30
2018-02-26T02:49:17.243Z,-2.30
2018-02-26T03:01:14.165Z,-2.37
2018-02-26T03:02:13.728Z,-2.24
2018-02-26T03:03:13.747Z,-2.21
2018-02-26T03:04:13.716Z,-2.29
2018-02-26T03:05:13.680Z,-2.15
2018-02-26T03:06:13.635Z,-2.13
2018-02-26T03:07:13.626Z,-2.15
2018-02-26T03:08:13.593Z,-2.18
2018-02-26T03:09:13.636Z,-2.16
2018-02-26T03:10:13.561Z,-2.10
2018-02-26T03:11:13.539Z,-2.13
2018-02-26T03:12:14.134Z,-2.21
2018-02-26T03:13:13.496Z,-2.16
2018-02-26T03:14:13.484Z,-2.12
2018-02-26T03:15:13.460Z,-2.16
2018-02-26T03:58:02.854Z,-2.16
2018-02-26T03:58:35.758Z,-2.13
2018-02-26T04:09:58.901Z,-2.45
2018-02-26T04:10:58.878Z,-2.43
2018-02-26T04:11:58.915Z,-2.43
2018-02-26T04:12:58.841Z,-2.42
2018-02-26T04:13:58.813Z,-2.39
2018-02-26T04:14:58.823Z,-2.32
2018-02-26T04:15:58.767Z,-2.43
2018-02-26T04:16:58.741Z,-2.39
2018-02-26T04:17:58.765Z,-2.32
2018-02-26T04:18:58.706Z,-2.32
2018-02-26T06:13:26.825Z,-2.97
2018-02-26T06:13:59.740Z,-2.97
2018-02-26T06:14:59.694Z,-2.94
2018-02-26T06:15:59.708Z,-2.94
2018-02-26T06:16:59.641Z,-2.91
2018-02-26T06:17:59.634Z,-2.84
2018-02-26T06:18:59.953Z,-2.85
2018-02-26T06:19:59.612Z,-2.86
2018-02-26T06:20:59.600Z,-2.89
2018-02-26T06:21:59.648Z,-2.84
2018-02-26T06:22:59.574Z,-2.78
2018-02-26T06:23:59.537Z,-2.85
2018-02-26T06:24:59.679Z,-2.91
2018-02-26T06:25:59.467Z,-2.77
2018-02-26T06:26:59.719Z,-2.85
2018-02-26T06:27:59.564Z,-2.70
2018-02-26T06:28:59.447Z,-2.73
2018-02-26T06:29:59.435Z,-2.70
2018-02-26T06:30:59.984Z,-2.82
2018-02-26T06:31:59.357Z,-2.73
2018-02-26T06:32:59.365Z,-2.79
2018-02-26T06:33:59.299Z,-2.77
2018-02-26T06:34:59.289Z,-2.84
2018-02-26T06:35:59.374Z,-2.88
2018-02-26T06:36:59.341Z,-2.91
2018-02-26T06:37:59.279Z,-3.00
2018-02-26T06:38:59.321Z,-3.00
2018-02-26T06:39:59.163Z,-3.15
2018-02-26T06:40:59.134Z,-2.97
2018-02-26T06:41:59.121Z,-3.10
2018-02-26T06:42:59.156Z,-3.05
2018-02-26T06:43:59.130Z,-3.10
2018-02-26T06:44:59.113Z,-3.12
2018-02-26T06:45:59.094Z,-3.15
2018-02-26T06:46:59.070Z,-3.06
2018-02-26T06:47:58.984Z,-3.10
2018-02-26T06:48:58.953Z,-3.03
2018-02-26T06:49:58.945Z,-3.10
2018-02-26T06:50:58.984Z,-3.06
2018-02-26T06:51:58.981Z,-3.12
2018-02-26T06:52:58.869Z,-3.07
2018-02-26T06:53:58.859Z,-3.07
2018-02-26T06:54:58.913Z,-3.09
2018-02-26T06:55:59.414Z,-3.14
2018-02-26T06:56:58.791Z,-3.07
2018-02-26T06:57:58.824Z,-3.17
2018-02-26T06:58:58.810Z,-3.20
2018-02-26T06:59:58.768Z,-3.15
2018-02-26T07:00:58.711Z,-3.17
2018-02-26T07:01:58.720Z,-3.24
2018-02-26T07:02:58.713Z,-3.18
2018-02-26T07:03:58.635Z,-3.10
2018-02-26T07:04:58.683Z,-3.15
2018-02-26T07:05:58.651Z,-3.10
2018-02-26T07:06:58.640Z,-3.12
2018-02-26T07:07:58.547Z,-3.15
2018-02-26T07:08:58.583Z,-3.07
2018-02-26T07:09:58.514Z,-3.17
2018-02-26T07:10:58.525Z,-3.02
2018-02-26T07:11:58.527Z,-3.02
2018-02-26T07:12:58.555Z,-3.02
2018-02-26T07:13:58.455Z,-2.96
2018-02-26T07:14:58.543Z,-3.00
2018-02-26T07:15:58.432Z,-3.05
2018-02-26T07:16:58.383Z,-3.00
2018-02-26T07:17:58.373Z,-3.02
2018-02-26T07:18:58.346Z,-2.96
2018-02-26T07:19:58.295Z,-3.00
2018-02-26T07:20:58.260Z,-3.03
2018-02-26T07:21:58.259Z,-3.07
2018-02-26T07:22:58.314Z,-3.07
2018-02-26T07:23:58.196Z,-3.15
2018-02-26T07:25:09.940Z,-3.18
2018-02-26T07:25:58.238Z,-3.12
2018-02-26T07:26:58.163Z,-3.07
2018-02-26T07:27:58.234Z,-3.00
2018-02-26T07:28:58.133Z,-2.96
2018-02-26T07:29:58.069Z,-2.91
2018-02-26T07:30:58.055Z,-2.99
2018-02-26T07:31:58.037Z,-3.00
2018-02-26T07:32:58.014Z,-2.96
2018-02-26T07:33:57.989Z,-2.97
2018-02-26T07:34:57.980Z,-3.06
2018-02-26T07:35:57.991Z,-2.96
2018-02-26T07:36:57.937Z,-3.02
2018-02-26T07:37:57.955Z,-3.06
2018-02-26T07:38:57.936Z,-3.00
2018-02-26T07:39:57.876Z,-3.06
2018-02-26T07:40:57.844Z,-2.99
2018-02-26T07:41:58.379Z,-2.92
2018-02-26T07:42:57.775Z,-2.97
2018-02-26T07:43:57.784Z,-3.03
2018-02-26T07:44:57.777Z,-2.92
2018-02-26T07:45:57.725Z,-2.84
2018-02-26T07:46:57.723Z,-2.85
2018-02-26T07:47:57.746Z,-2.86
2018-02-26T07:48:57.663Z,-2.89
2018-02-26T07:49:57.718Z,-2.88
2018-02-26T07:50:57.622Z,-2.89
2018-02-26T07:51:57.586Z,-2.84
2018-02-26T07:52:57.575Z,-2.88
2018-02-26T07:53:57.558Z,-2.89
2018-02-26T07:54:58.314Z,-2.82
2018-02-26T07:55:57.504Z,-2.91
2018-02-26T07:56:57.488Z,-2.82
2018-02-26T07:57:57.477Z,-2.86
2018-02-26T07:58:57.472Z,-2.88
2018-02-26T07:59:57.443Z,-2.88
2018-02-26T08:00:58.033Z,-2.94
2018-02-26T08:01:57.454Z,-2.94
2018-02-26T08:02:58.065Z,-2.96
2018-02-26T08:03:57.340Z,-3.02
2018-02-26T08:04:58.011Z,-2.99
2018-02-26T08:05:57.410Z,-2.96
2018-02-26T08:06:57.275Z,-2.97
2018-02-26T08:07:57.344Z,-2.92
2018-02-26T08:08:57.217Z,-2.94
2018-02-26T08:09:57.212Z,-2.99
2018-02-26T08:11:04.234Z,-3.05
2018-02-26T08:11:57.249Z,-3.00
2018-02-26T08:12:57.143Z,-2.96
2018-02-26T08:13:57.126Z,-2.99
2018-02-26T08:14:57.195Z,-2.88
2018-02-26T08:15:57.105Z,-2.82
2018-02-26T08:16:57.053Z,-2.88
2018-02-26T08:17:57.051Z,-2.88
2018-02-26T08:18:57.091Z,-2.78
2018-02-26T08:19:57.573Z,-2.71
2018-02-26T08:20:58.231Z,-2.66
2018-02-26T08:21:56.951Z,-2.66
2018-02-26T08:22:56.954Z,-2.55
2018-02-26T08:23:56.926Z,-2.50
2018-02-26T08:24:57.168Z,-2.43
2018-02-26T08:25:56.877Z,-2.56
2018-02-26T08:26:56.854Z,-2.67
2018-02-26T08:27:57.125Z,-2.67
2018-02-26T08:28:56.864Z,-2.68
2018-02-26T08:29:56.795Z,-2.68
2018-02-26T08:30:56.798Z,-2.67
2018-02-26T08:31:56.755Z,-2.70
2018-02-26T08:32:56.811Z,-2.67
2018-02-26T08:33:56.787Z,-2.70
2018-02-26T08:34:58.324Z,-2.71
2018-02-26T08:35:56.736Z,-2.77
2018-02-26T08:36:56.690Z,-2.66
2018-02-26T08:37:56.638Z,-2.70
2018-02-26T08:38:56.661Z,-2.73
2018-02-26T08:39:56.572Z,-2.67
2018-02-26T08:40:56.558Z,-2.68
2018-02-26T08:41:56.526Z,-2.56
2018-02-26T08:42:56.543Z,-2.58
2018-02-26T08:43:56.529Z,-2.46
2018-02-26T08:44:56.544Z,-2.42
2018-02-26T08:45:56.454Z,-2.35
2018-02-26T08:46:56.434Z,-2.24
2018-02-26T08:47:56.422Z,-2.18
2018-02-26T08:48:56.389Z,-2.20
2018-02-26T08:49:56.372Z,-2.27
2018-02-26T08:50:56.373Z,-2.20
2018-02-26T08:51:56.330Z,-2.24
2018-02-26T08:52:56.295Z,-2.23
2018-02-26T08:53:56.316Z,-2.40
2018-02-26T08:54:56.469Z,-2.21
2018-02-26T08:55:56.237Z,-2.30
2018-02-26T08:56:57.525Z,-2.27
2018-02-26T08:57:56.226Z,-2.20
2018-02-26T08:58:56.217Z,-2.20
2018-02-26T08:59:56.204Z,-2.09
2018-02-26T09:00:56.869Z,-2.10
2018-02-26T09:01:56.112Z,-2.24
2018-02-26T09:02:56.084Z,-2.29
2018-02-26T09:03:56.067Z,-2.24
2018-02-26T09:04:56.046Z,-2.29
2018-02-26T09:05:56.081Z,-2.32
2018-02-26T09:06:56.699Z,-2.34
2018-02-26T09:07:56.608Z,-2.35
2018-02-26T09:08:56.667Z,-2.32
2018-02-26T09:09:56.544Z,-2.24
2018-02-26T09:10:56.577Z,-2.23
2018-02-26T09:11:56.982Z,-2.18
2018-02-26T09:12:56.589Z,-2.23
2018-02-26T09:13:56.030Z,-2.23
2018-02-26T09:14:56.569Z,-2.24
2018-02-26T09:15:55.867Z,-2.35
2018-02-26T09:16:55.792Z,-2.26
2018-02-26T09:17:55.805Z,-2.29
2018-02-26T09:18:55.755Z,-2.16
2018-02-26T09:19:55.742Z,-2.13
2018-02-26T09:20:55.716Z,-2.16
2018-02-26T09:21:55.699Z,-2.23
2018-02-26T09:22:55.715Z,-2.21
2018-02-26T09:23:55.681Z,-2.16
2018-02-26T09:24:55.695Z,-2.18
2018-02-26T09:25:55.611Z,-2.24
2018-02-26T09:26:55.601Z,-2.23
2018-02-26T09:27:55.611Z,-2.18
2018-02-26T09:28:55.546Z,-2.10
2018-02-26T09:29:55.542Z,-2.02
2018-02-26T09:30:55.526Z,-1.92
2018-02-26T09:31:55.495Z,-1.98
2018-02-26T09:32:55.491Z,-1.92
2018-02-26T09:33:55.464Z,-1.94
2018-02-26T09:34:55.734Z,-1.90
2018-02-26T09:35:55.417Z,-1.84
2018-02-26T09:36:55.389Z,-1.91
2018-02-26T09:37:55.375Z,-1.76
2018-02-26T09:38:55.397Z,-1.90
2018-02-26T09:39:55.370Z,-1.91
2018-02-26T09:40:55.317Z,-1.92
2018-02-26T09:41:55.297Z,-2.00
2018-02-26T09:42:55.292Z,-1.92
2018-02-26T09:43:55.290Z,-1.95
2018-02-26T12:07:26.431Z,1.99
2018-02-26T12:08:27.904Z,2.25
2018-02-26T12:09:39.873Z,2.35
2018-02-26T12:10:27.851Z,2.41
2018-02-26T12:11:30.050Z,2.49
2018-02-26T12:14:01.936Z,2.09
2018-02-26T12:15:01.112Z,2.00
2018-02-26T12:16:01.143Z,1.69
2018-02-26T12:17:01.261Z,1.58
2018-02-26T12:18:02.530Z,1.37
2018-02-26T12:19:06.756Z,1.29
2018-02-26T12:20:01.255Z,1.41
2018-02-26T12:21:02.539Z,1.51
2018-02-26T12:22:02.306Z,1.51
2018-02-26T12:23:01.072Z,1.55
2018-02-26T12:24:00.964Z,1.30
2018-02-26T12:25:00.993Z,1.34
2018-02-26T12:26:00.981Z,1.08
2018-02-26T12:27:01.350Z,0.97
2018-02-26T12:28:00.935Z,0.84
2018-02-26T12:29:00.937Z,0.61
2018-02-26T12:30:00.874Z,0.53
2018-02-26T12:31:00.854Z,0.50
2018-02-26T12:32:00.985Z,0.49
2018-02-26T12:33:00.820Z,0.44
2018-02-26T12:34:00.868Z,0.35
2018-02-26T12:35:00.797Z,0.33
2018-02-26T12:36:00.785Z,0.23
2018-02-26T12:37:00.754Z,0.24
2018-02-26T12:38:00.743Z,0.26
2018-02-26T12:39:15.455Z,0.29
2018-02-26T12:49:46.882Z,0.75
2018-02-26T12:50:19.779Z,0.79
2018-02-26T12:51:20.791Z,0.76
2018-02-26T12:52:19.741Z,0.78
2018-02-26T12:53:20.287Z,0.72
2018-02-26T12:54:19.670Z,0.76
2018-02-26T12:55:19.685Z,0.73
2018-02-26T12:56:19.637Z,0.69
2018-02-26T12:57:19.734Z,0.68
2018-02-26T12:58:19.590Z,0.65
2018-02-26T12:59:19.824Z,0.61
2018-02-26T13:00:19.703Z,0.78
2018-02-26T13:01:19.840Z,0.84
2018-02-26T13:02:19.548Z,0.78
2018-02-26T13:03:19.512Z,0.91
2018-02-26T13:04:19.550Z,0.96
2018-02-26T13:05:19.465Z,0.91
2018-02-26T13:06:19.451Z,1.06
2018-02-26T13:07:19.438Z,1.06
2018-02-26T13:08:19.411Z,0.97
2018-02-26T13:09:19.417Z,1.08
2018-02-26T13:10:19.387Z,1.06
2018-02-26T13:11:21.399Z,0.94
2018-02-26T13:12:19.341Z,0.79
2018-02-26T13:13:19.365Z,0.75
2018-02-26T13:14:20.726Z,0.65
2018-02-26T13:15:19.310Z,0.49
2018-02-26T13:16:19.293Z,0.50
2018-02-26T13:17:19.275Z,0.44
2018-02-26T13:18:19.242Z,0.49
2018-02-26T13:19:19.212Z,0.55
2018-02-26T13:20:19.192Z,0.58
2018-02-26T13:21:19.236Z,0.58
2018-02-26T13:22:19.221Z,0.62
2018-02-26T13:23:19.140Z,0.69
2018-02-26T13:24:19.121Z,0.72
2018-02-26T13:25:19.822Z,0.76
2018-02-26T13:26:19.080Z,0.69
2018-02-26T13:27:19.083Z,0.50
2018-02-26T13:28:19.058Z,0.49
2018-02-26T13:29:19.035Z,0.53
2018-02-26T13:30:19.018Z,0.51
2018-02-26T13:31:19.014Z,0.49
2018-02-26T13:32:19.076Z,0.55
2018-02-26T13:33:18.958Z,0.55
2018-02-26T13:34:19.052Z,0.53
2018-02-26T13:35:19.842Z,0.51
2018-02-26T13:40:21.637Z,0.31
2018-02-26T13:41:22.809Z,0.13
2018-02-26T13:42:21.511Z,0.04
2018-02-26T13:43:21.506Z,-0.08
2018-02-26T13:44:21.467Z,-0.05
2018-02-26T13:45:21.554Z,-0.15
2018-02-26T13:46:21.575Z,-0.18
2018-02-26T13:47:21.406Z,-0.10
2018-02-26T13:48:21.392Z,0.00
2018-02-26T13:49:21.410Z,0.03
2018-02-26T14:22:34.903Z,0.29
2018-02-26T14:23:27.962Z,0.20
2018-02-26T14:24:27.348Z,0.46
2018-02-26T14:25:29.983Z,0.36
2018-02-26T14:26:38.976Z,0.31
2018-02-26T14:27:33.067Z,0.23
2018-02-26T14:28:27.966Z,0.20
2018-02-26T14:36:44.125Z,1.55
2018-02-26T14:37:38.070Z,1.98
2018-02-26T14:38:37.750Z,2.12
2018-02-26T14:39:37.756Z,2.38
2018-02-26T14:40:37.759Z,2.45
2018-02-26T14:41:37.786Z,2.18
2018-02-26T14:42:37.728Z,2.07
2018-02-26T14:43:37.737Z,1.44
2018-02-26T14:44:37.763Z,1.12
2018-02-26T14:45:37.684Z,0.78
2018-02-26T14:46:37.722Z,0.60
2018-02-26T14:47:37.825Z,0.41
2018-02-26T14:48:37.721Z,0.17
2018-02-26T14:49:38.586Z,0.04
2018-02-26T14:50:37.850Z,0.03
2018-02-26T14:51:37.955Z,-0.07
2018-02-26T14:52:37.584Z,-0.28
2018-02-26T14:53:37.506Z,-0.46
2018-02-26T14:54:37.480Z,-0.54
2018-02-26T14:55:37.524Z,-0.42
2018-02-26T14:56:37.433Z,-0.51
2018-02-26T14:57:37.559Z,-0.61
2018-02-26T14:58:37.426Z,-0.64
2018-02-26T14:59:37.381Z,-0.51
2018-02-26T15:00:37.376Z,-0.51
2018-02-26T15:01:37.368Z,-0.51
2018-02-26T15:02:37.402Z,-0.40
2018-02-26T15:03:37.327Z,-0.34
2018-02-26T15:04:37.381Z,-0.29
2018-02-26T15:05:37.285Z,-0.22
2018-02-26T15:06:38.649Z,-0.14
2018-02-26T15:28:38.656Z,2.69
2018-02-26T15:28:51.054Z,2.48
2018-02-26T15:29:39.048Z,2.46
2018-02-26T15:30:39.038Z,2.42
2018-02-26T15:34:33.301Z,2.52
2018-02-26T15:35:32.332Z,2.67
2018-02-26T15:36:32.398Z,2.66
2018-02-26T15:37:33.052Z,2.77
2018-02-26T15:58:43.283Z,0.49
2018-02-26T15:59:43.934Z,0.38
2018-02-26T16:00:45.994Z,0.17
2018-02-26T16:01:43.322Z,0.17
2018-02-26T16:02:43.345Z,0.17
2018-02-26T16:03:43.188Z,0.17
2018-02-26T16:27:57.068Z,-0.85
2018-02-26T16:28:57.044Z,-0.75
2018-02-26T16:29:57.010Z,-0.79
2018-02-26T16:30:56.996Z,-0.89
2018-02-26T16:31:57.008Z,-0.92
2018-02-26T16:32:56.973Z,-0.94
2018-02-26T16:33:56.928Z,-0.91
2018-02-26T16:34:56.921Z,-0.97
2018-02-26T16:35:56.932Z,-0.98
2018-02-26T16:36:56.897Z,-0.98
2018-02-26T16:37:56.891Z,-0.98
2018-02-26T16:38:56.852Z,-1.01
2018-02-26T16:39:56.829Z,-1.04
2018-02-26T16:40:56.809Z,-1.13
2018-02-26T16:41:56.819Z,-1.05
2018-02-26T16:42:56.790Z,-1.16
2018-02-26T16:43:56.741Z,-1.17
2018-02-26T16:44:56.728Z,-1.12
2018-02-26T16:45:56.689Z,-1.17
2018-02-26T16:46:56.698Z,-1.23
2018-02-26T16:47:56.665Z,-1.15
2018-02-26T16:48:56.631Z,-1.25
2018-02-26T16:49:56.621Z,-1.16
2018-02-26T16:50:56.594Z,-1.28
2018-02-26T16:51:56.575Z,-1.25
2018-02-26T16:52:56.603Z,-1.33
2018-02-26T16:53:56.529Z,-1.30
2018-02-26T16:54:56.505Z,-1.22
2018-02-26T16:55:56.499Z,-1.23
2018-02-26T16:56:56.495Z,-1.23
2018-02-26T16:57:56.450Z,-1.20
2018-02-26T16:58:56.427Z,-1.27
2018-02-26T16:59:56.413Z,-1.27
2018-02-26T17:00:56.540Z,-1.30
2018-02-26T17:01:56.376Z,-1.40
2018-02-26T17:02:56.348Z,-1.37
2018-02-26T17:03:56.336Z,-1.40
2018-02-26T17:04:56.310Z,-1.45
2018-02-26T17:05:56.294Z,-1.37
2018-02-26T17:06:56.272Z,-1.49
2018-02-26T17:07:56.244Z,-1.46
2018-02-26T17:08:56.238Z,-1.45
2018-02-26T17:09:56.210Z,-1.49
2018-02-26T17:10:56.224Z,-1.37
2018-02-26T17:11:56.231Z,-1.40
2018-02-26T17:12:56.148Z,-1.43
2018-02-26T17:13:56.135Z,-1.40
2018-02-26T17:14:56.093Z,-1.46
2018-02-26T17:15:56.091Z,-1.55
2018-02-26T17:19:53.467Z,-1.33
2018-02-26T17:20:53.430Z,-1.40
2018-02-26T17:21:53.405Z,-1.43
2018-02-26T17:22:53.369Z,-1.41
2018-02-26T17:23:53.415Z,-1.41
2018-02-26T17:24:53.344Z,-1.45
2018-02-26T17:25:53.371Z,-1.38
2018-02-26T17:26:53.298Z,-1.38
2018-02-26T17:27:53.276Z,-1.41
2018-02-26T17:28:53.259Z,-1.56
2018-02-26T17:29:53.264Z,-1.55
2018-02-26T17:30:53.206Z,-1.51
2018-02-26T17:31:53.201Z,-1.56
2018-02-26T17:32:53.166Z,-1.45
2018-02-26T17:33:53.170Z,-1.41
2018-02-26T17:34:53.203Z,-1.52
2018-02-26T17:35:53.751Z,-1.48
2018-02-26T17:36:53.086Z,-1.51
2018-02-26T17:37:53.074Z,-1.46
2018-02-26T17:38:53.041Z,-1.43
2018-02-26T17:39:53.021Z,-1.52
2018-02-26T17:40:53.060Z,-1.52
2018-02-26T17:41:52.994Z,-1.48
2018-02-26T17:42:52.968Z,-1.49
2018-02-26T17:43:52.940Z,-1.48
2018-02-26T17:44:52.926Z,-1.46
2018-02-26T17:45:52.908Z,-1.49
2018-02-26T17:46:52.880Z,-1.54
2018-02-26T17:47:52.857Z,-1.52
2018-02-26T17:48:52.847Z,-1.52
2018-02-26T23:11:58.490Z,-2.73
2018-02-26T23:12:58.502Z,-2.73
2018-02-26T23:13:58.407Z,-2.77
2018-02-26T23:14:58.388Z,-2.78
2018-02-26T23:15:58.377Z,-2.74
2018-02-26T23:16:58.352Z,-2.70
2018-02-26T23:17:58.334Z,-2.74
2018-02-26T23:18:58.340Z,-2.79
2018-02-26T23:19:58.344Z,-2.73
2018-02-26T23:20:58.251Z,-2.74
2018-02-26T23:21:58.239Z,-2.82
2018-02-26T23:22:58.209Z,-2.91
2018-02-26T23:23:58.205Z,-2.86
2018-02-26T23:24:58.175Z,-2.91
2018-02-26T23:25:58.205Z,-2.85
2018-02-26T23:26:58.118Z,-2.84
2018-02-26T23:27:58.103Z,-2.86
2018-02-26T23:28:58.086Z,-2.91
2018-02-26T23:29:58.065Z,-2.89
2018-02-26T23:30:58.039Z,-2.91
2018-02-26T23:31:58.025Z,-2.82
2018-02-26T23:32:57.987Z,-2.91
2018-02-26T23:33:57.971Z,-2.86
2018-02-26T23:34:57.946Z,-2.86
2018-02-26T23:35:57.934Z,-2.88
2018-02-26T23:36:57.937Z,-2.91
2018-02-26T23:37:57.892Z,-2.96
2018-02-26T23:38:57.872Z,-2.99
2018-02-26T23:39:57.846Z,-2.94
2018-02-26T23:40:57.842Z,-2.99
2018-02-26T23:41:57.797Z,-2.96
2018-02-26T23:42:57.807Z,-2.99
2018-02-26T23:43:57.761Z,-2.97
2018-02-26T23:44:57.732Z,-2.89
2018-02-26T23:45:57.715Z,-3.02
2018-02-26T23:46:57.687Z,-2.99
2018-02-26T23:47:57.659Z,-3.03
2018-02-26T23:48:57.638Z,-3.00
2018-02-26T23:49:57.612Z,-3.07
2018-02-26T23:50:57.596Z,-3.07
2018-02-26T23:51:57.624Z,-3.14
2018-02-26T23:52:57.553Z,-3.15
2018-02-26T23:53:57.542Z,-3.17
2018-02-26T23:54:57.506Z,-3.09
2018-02-26T23:55:57.491Z,-3.17
2018-02-26T23:56:57.470Z,-3.10
2018-02-26T23:57:57.498Z,-3.07
2018-02-26T23:58:57.415Z,-2.96
2018-02-26T23:59:57.394Z,-3.03
